Terminal Aerodrome Forecast
Issued by NWS

Home | Current Version | Previous Version | Text Only | Print | Product List | Glossary On
Versions: 1 2 3 4 5 6 7 8 9 10 11 12 13 14 15 16 17 18 19 20 21 22 23 24 25 26 27 28 29 30 31 32 33 34 35 36 37 38 39 40 41 42 43 44 45 46 47 48 49 50
000
FTUS45 KBOU 200557
TAFAPA
TAF
KAPA 200557Z 2006/2106 15020G30KT P6SM SCT120 BKN220
     FM201300 14020G28KT P6SM SCT060 BKN120
     FM201900 12018G26KT P6SM VCSH SCT030 BKN050 OVC070 PROB30
      2020/2022 -SHRA BKN030
     FM202200 10015G23KT P6SM -SHRA BKN025 OVC050
     FM210100 03012KT 4SM -RASN BR SCT008 OVC020
      TEMPO 2103/2106 2SM -SN BR OVC006=

USA.gov is the U.S. government's official web portal to all federal, state and local government web resources and services.